sensor_id;sensor_type;location;lat;lon;timestamp;pressure;altitude;pressure_sealevel;temperature;humidity
35519;BME280;21627;48.216;16.482;2023-07-31T00:01:26;99688.72;;;17.79;100.00
35519;BME280;21627;48.216;16.482;2023-07-31T00:03:53;99675.00;;;17.72;100.00
35519;BME280;21627;48.216;16.482;2023-07-31T00:06:21;99679.38;;;17.71;100.00
35519;BME280;21627;48.216;16.482;2023-07-31T00:08:48;99685.59;;;17.67;100.00
35519;BME280;21627;48.216;16.482;2023-07-31T00:11:15;99676.91;;;17.67;100.00
35519;BME280;21627;48.216;16.482;2023-07-31T00:13:42;99680.41;;;17.66;100.00
35519;BME280;21627;48.216;16.482;2023-07-31T00:16:09;99684.78;;;17.65;100.00
35519;BME280;21627;48.216;16.482;2023-07-31T00:18:36;99682.19;;;17.64;100.00
35519;BME280;21627;48.216;16.482;2023-07-31T00:21:03;99679.56;;;17.64;100.00
35519;BME280;21627;48.216;16.482;2023-07-31T00:23:31;99682.41;;;17.58;100.00
35519;BME280;21627;48.216;16.482;2023-07-31T00:25:58;99686.88;;;17.54;100.00
35519;BME280;21627;48.216;16.482;2023-07-31T00:28:25;99688.59;;;17.53;100.00
35519;BME280;21627;48.216;16.482;2023-07-31T00:30:52;99689.50;;;17.52;100.00
35519;BME280;21627;48.216;16.482;2023-07-31T00:33:19;99698.31;;;17.50;100.00
35519;BME280;21627;48.216;16.482;2023-07-31T00:35:48;99684.53;;;17.43;100.00
35519;BME280;21627;48.216;16.482;2023-07-31T00:38:15;99680.22;;;17.42;100.00
35519;BME280;21627;48.216;16.482;2023-07-31T00:40:42;99683.78;;;17.40;100.00
35519;BME280;21627;48.216;16.482;2023-07-31T00:43:09;99679.50;;;17.37;100.00
35519;BME280;21627;48.216;16.482;2023-07-31T00:45:36;99675.13;;;17.38;100.00
35519;BME280;21627;48.216;16.482;2023-07-31T00:48:04;99669.19;;;17.33;100.00
35519;BME280;21627;48.216;16.482;2023-07-31T00:50:34;99669.19;;;17.33;100.00
35519;BME280;21627;48.216;16.482;2023-07-31T00:53:02;99671.91;;;17.29;100.00
35519;BME280;21627;48.216;16.482;2023-07-31T00:55:29;99684.97;;;17.29;100.00
35519;BME280;21627;48.216;16.482;2023-07-31T00:57:57;99688.44;;;17.30;100.00
35519;BME280;21627;48.216;16.482;2023-07-31T01:00:24;99678.78;;;17.32;100.00
35519;BME280;21627;48.216;16.482;2023-07-31T01:02:51;99684.97;;;17.29;100.00
35519;BME280;21627;48.216;16.482;2023-07-31T01:05:29;99686.66;;;17.30;100.00
35519;BME280;21627;48.216;16.482;2023-07-31T01:08:18;99689.47;;;17.24;100.00
35519;BME280;21627;48.216;16.482;2023-07-31T01:10:59;99692.19;;;17.20;100.00
35519;BME280;21627;48.216;16.482;2023-07-31T01:13:29;99696.59;;;17.18;100.00
35519;BME280;21627;48.216;16.482;2023-07-31T01:15:56;99689.84;;;17.11;100.00
35519;BME280;21627;48.216;16.482;2023-07-31T01:18:23;99692.31;;;17.15;100.00
35519;BME280;21627;48.216;16.482;2023-07-31T01:21:13;99696.72;;;17.13;100.00
35519;BME280;21627;48.216;16.482;2023-07-31T01:26:47;99702.13;;;17.07;100.00
35519;BME280;21627;48.216;16.482;2023-07-31T01:31:55;99698.69;;;17.06;100.00
35519;BME280;21627;48.216;16.482;2023-07-31T01:34:23;99704.75;;;17.07;100.00
35519;BME280;21627;48.216;16.482;2023-07-31T01:36:51;99697.00;;;17.04;100.00
35519;BME280;21627;48.216;16.482;2023-07-31T01:39:20;99695.16;;;17.07;100.00
35519;BME280;21627;48.216;16.482;2023-07-31T01:41:48;99696.94;;;17.05;100.00
35519;BME280;21627;48.216;16.482;2023-07-31T01:44:15;99694.38;;;17.04;100.00
35519;BME280;21627;48.216;16.482;2023-07-31T01:46:42;99694.38;;;17.04;100.00
35519;BME280;21627;48.216;16.482;2023-07-31T01:49:10;99697.03;;;17.02;100.00
35519;BME280;21627;48.216;16.482;2023-07-31T01:51:37;99689.41;;;16.95;100.00
35519;BME280;21627;48.216;16.482;2023-07-31T01:54:04;99699.00;;;16.94;100.00
35519;BME280;21627;48.216;16.482;2023-07-31T01:56:31;99698.22;;;16.91;100.00
35519;BME280;21627;48.216;16.482;2023-07-31T01:58:58;99699.13;;;16.90;100.00
35519;BME280;21627;48.216;16.482;2023-07-31T02:01:25;99704.47;;;16.85;100.00
35519;BME280;21627;48.216;16.482;2023-07-31T02:03:52;99695.91;;;16.80;100.00
35519;BME280;21627;48.216;16.482;2023-07-31T02:06:19;99702.84;;;16.81;100.00
35519;BME280;21627;48.216;16.482;2023-07-31T02:08:46;99713.31;;;16.79;100.00
35519;BME280;21627;48.216;16.482;2023-07-31T02:11:14;99709.84;;;16.79;100.00
35519;BME280;21627;48.216;16.482;2023-07-31T02:13:41;99722.09;;;16.75;100.00
35519;BME280;21627;48.216;16.482;2023-07-31T02:16:08;99702.41;;;16.63;100.00
35519;BME280;21627;48.216;16.482;2023-07-31T02:18:35;99711.00;;;16.67;100.00
35519;BME280;21627;48.216;16.482;2023-07-31T02:21:02;99713.59;;;16.67;100.00
35519;BME280;21627;48.216;16.482;2023-07-31T02:23:29;99710.25;;;16.62;100.00
35519;BME280;21627;48.216;16.482;2023-07-31T02:25:56;99721.53;;;16.62;100.00
35519;BME280;21627;48.216;16.482;2023-07-31T02:28:23;99719.88;;;16.60;100.00
35519;BME280;21627;48.216;16.482;2023-07-31T02:30:50;99719.03;;;16.58;100.00
35519;BME280;21627;48.216;16.482;2023-07-31T02:33:19;99714.84;;;16.52;100.00
35519;BME280;21627;48.216;16.482;2023-07-31T02:35:46;99721.72;;;16.56;100.00
35519;BME280;21627;48.216;16.482;2023-07-31T02:38:13;99723.47;;;16.56;100.00
35519;BME280;21627;48.216;16.482;2023-07-31T02:40:40;99716.63;;;16.50;100.00
35519;BME280;21627;48.216;16.482;2023-07-31T02:43:10;99720.16;;;16.49;100.00
35519;BME280;21627;48.216;16.482;2023-07-31T02:45:37;99730.41;;;16.55;100.00
35519;BME280;21627;48.216;16.482;2023-07-31T02:48:04;99731.31;;;16.54;100.00
35519;BME280;21627;48.216;16.482;2023-07-31T02:50:32;99726.13;;;16.53;100.00
35519;BME280;21627;48.216;16.482;2023-07-31T02:52:59;99726.13;;;16.53;100.00
35519;BME280;21627;48.216;16.482;2023-07-31T02:55:26;99725.34;;;16.51;100.00
35519;BME280;21627;48.216;16.482;2023-07-31T02:57:54;99735.63;;;16.57;100.00
35519;BME280;21627;48.216;16.482;2023-07-31T03:00:21;99726.94;;;16.56;100.00
35519;BME280;21627;48.216;16.482;2023-07-31T03:02:48;99734.72;;;16.58;100.00
35519;BME280;21627;48.216;16.482;2023-07-31T03:05:15;99726.97;;;16.55;100.00
35519;BME280;21627;48.216;16.482;2023-07-31T03:07:42;99738.13;;;16.60;100.00
35519;BME280;21627;48.216;16.482;2023-07-31T03:10:09;99738.13;;;16.61;100.00
35519;BME280;21627;48.216;16.482;2023-07-31T03:12:37;99736.44;;;16.59;100.00
35519;BME280;21627;48.216;16.482;2023-07-31T03:15:04;99746.78;;;16.62;100.00
35519;BME280;21627;48.216;16.482;2023-07-31T03:17:31;99746.78;;;16.62;100.00
35519;BME280;21627;48.216;16.482;2023-07-31T03:19:58;99734.72;;;16.58;100.00
35519;BME280;21627;48.216;16.482;2023-07-31T03:22:26;99737.38;;;16.56;100.00
35519;BME280;21627;48.216;16.482;2023-07-31T03:24:53;99741.66;;;16.59;100.00
35519;BME280;21627;48.216;16.482;2023-07-31T03:27:20;99748.63;;;16.58;100.00
35519;BME280;21627;48.216;16.482;2023-07-31T03:29:47;99742.63;;;16.55;100.00
35519;BME280;21627;48.216;16.482;2023-07-31T03:32:16;99743.53;;;16.54;100.00
35519;BME280;21627;48.216;16.482;2023-07-31T03:34:43;99741.03;;;16.48;100.00
35519;BME280;21627;48.216;16.482;2023-07-31T03:37:10;99741.09;;;16.46;100.00
35519;BME280;21627;48.216;16.482;2023-07-31T03:39:37;99751.44;;;16.51;100.00
35519;BME280;21627;48.216;16.482;2023-07-31T03:42:05;99741.97;;;16.45;100.00
35519;BME280;21627;48.216;16.482;2023-07-31T03:44:32;99747.09;;;16.50;100.00
35519;BME280;21627;48.216;16.482;2023-07-31T03:46:59;99755.75;;;16.52;100.00
35519;BME280;21627;48.216;16.482;2023-07-31T03:49:26;99741.03;;;16.49;100.00
35519;BME280;21627;48.216;16.482;2023-07-31T03:51:54;99745.28;;;16.53;100.00
35519;BME280;21627;48.216;16.482;2023-07-31T03:54:21;99748.78;;;16.52;100.00
35519;BME280;21627;48.216;16.482;2023-07-31T03:56:48;99753.13;;;16.53;100.00
35519;BME280;21627;48.216;16.482;2023-07-31T03:59:15;99765.19;;;16.57;100.00
35519;BME280;21627;48.216;16.482;2023-07-31T04:01:42;99758.19;;;16.59;100.00
35519;BME280;21627;48.216;16.482;2023-07-31T04:04:09;99766.78;;;16.63;100.00
35519;BME280;21627;48.216;16.482;2023-07-31T04:06:36;99761.56;;;16.63;100.00
35519;BME280;21627;48.216;16.482;2023-07-31T04:09:04;99765.78;;;16.69;100.00
35519;BME280;21627;48.216;16.482;2023-07-31T04:11:31;99771.84;;;16.71;100.00
35519;BME280;21627;48.216;16.482;2023-07-31T04:13:58;99769.97;;;16.76;100.00
35519;BME280;21627;48.216;16.482;2023-07-31T04:16:25;99766.47;;;16.78;100.00
35519;BME280;21627;48.216;16.482;2023-07-31T04:18:52;99762.03;;;16.80;100.00
35519;BME280;21627;48.216;16.482;2023-07-31T04:21:19;99761.16;;;16.81;100.00
35519;BME280;21627;48.216;16.482;2023-07-31T04:23:46;99761.88;;;16.86;100.00
35519;BME280;21627;48.216;16.482;2023-07-31T04:26:13;99750.53;;;16.87;100.00
35519;BME280;21627;48.216;16.482;2023-07-31T04:28:40;99740.88;;;16.91;100.00
35519;BME280;21627;48.216;16.482;2023-07-31T04:31:07;99732.88;;;16.97;100.00
35519;BME280;21627;48.216;16.482;2023-07-31T04:33:35;99742.38;;;17.00;100.00
35519;BME280;21627;48.216;16.482;2023-07-31T04:36:03;99735.38;;;17.02;100.00
35519;BME280;21627;48.216;16.482;2023-07-31T04:38:30;99737.84;;;17.06;100.00
35519;BME280;21627;48.216;16.482;2023-07-31T04:40:57;99733.31;;;17.13;100.00
35519;BME280;21627;48.216;16.482;2023-07-31T04:43:24;99737.66;;;17.14;100.00
35519;BME280;21627;48.216;16.482;2023-07-31T04:45:51;99733.28;;;17.15;100.00
35519;BME280;21627;48.216;16.482;2023-07-31T04:48:20;99733.97;;;17.21;100.00
35519;BME280;21627;48.216;16.482;2023-07-31T04:50:47;99741.63;;;17.27;100.00
35519;BME280;21627;48.216;16.482;2023-07-31T04:53:14;99743.31;;;17.30;100.00
35519;BME280;21627;48.216;16.482;2023-07-31T04:55:41;99749.28;;;17.34;100.00
35519;BME280;21627;48.216;16.482;2023-07-31T04:58:08;99752.66;;;17.39;100.00
35519;BME280;21627;48.216;16.482;2023-07-31T05:00:36;99751.72;;;17.41;100.00
35519;BME280;21627;48.216;16.482;2023-07-31T05:03:03;99745.56;;;17.42;100.00
35519;BME280;21627;48.216;16.482;2023-07-31T05:05:30;99747.97;;;17.50;100.00
35519;BME280;21627;48.216;16.482;2023-07-31T05:07:57;99750.59;;;17.50;100.00
35519;BME280;21627;48.216;16.482;2023-07-31T05:10:24;99752.03;;;17.60;100.00
35519;BME280;21627;48.216;16.482;2023-07-31T05:12:51;99752.94;;;17.59;100.00
35519;BME280;21627;48.216;16.482;2023-07-31T05:15:18;99758.00;;;17.65;100.00
35519;BME280;21627;48.216;16.482;2023-07-31T05:17:45;99754.34;;;17.71;100.00
35519;BME280;21627;48.216;16.482;2023-07-31T05:20:12;99768.19;;;17.74;100.00
35519;BME280;21627;48.216;16.482;2023-07-31T05:22:40;99768.94;;;17.80;100.00
35519;BME280;21627;48.216;16.482;2023-07-31T05:25:07;99758.41;;;17.81;100.00
35519;BME280;21627;48.216;16.482;2023-07-31T05:27:35;99759.00;;;17.91;100.00
35519;BME280;21627;48.216;16.482;2023-07-31T05:30:02;99753.03;;;17.87;100.00
35519;BME280;21627;48.216;16.482;2023-07-31T05:32:29;99758.03;;;17.95;100.00
35519;BME280;21627;48.216;16.482;2023-07-31T05:34:57;99770.16;;;17.98;100.00
35519;BME280;21627;48.216;16.482;2023-07-31T05:37:24;99766.75;;;17.94;100.00
35519;BME280;21627;48.216;16.482;2023-07-31T05:39:51;99771.94;;;17.95;100.00
35519;BME280;21627;48.216;16.482;2023-07-31T05:42:19;99768.34;;;18.00;100.00
35519;BME280;21627;48.216;16.482;2023-07-31T05:44:46;99770.84;;;18.04;100.00
35519;BME280;21627;48.216;16.482;2023-07-31T05:47:13;99771.78;;;18.02;100.00
35519;BME280;21627;48.216;16.482;2023-07-31T05:49:40;99775.25;;;18.02;100.00
35519;BME280;21627;48.216;16.482;2023-07-31T05:52:08;99771.72;;;18.03;100.00
35519;BME280;21627;48.216;16.482;2023-07-31T05:54:35;99779.22;;;18.14;100.00
35519;BME280;21627;48.216;16.482;2023-07-31T05:57:02;99777.41;;;18.17;100.00
35519;BME280;21627;48.216;16.482;2023-07-31T05:59:29;99772.09;;;18.19;100.00
35519;BME280;21627;48.216;16.482;2023-07-31T06:01:59;99767.31;;;18.33;100.00
35519;BME280;21627;48.216;16.482;2023-07-31T06:04:27;99766.16;;;18.42;100.00
35519;BME280;21627;48.216;16.482;2023-07-31T06:06:54;99773.78;;;18.50;100.00
35519;BME280;21627;48.216;16.482;2023-07-31T06:09:21;99771.75;;;18.58;100.00
35519;BME280;21627;48.216;16.482;2023-07-31T06:11:48;99772.31;;;18.68;100.00
35519;BME280;21627;48.216;16.482;2023-07-31T06:14:15;99777.19;;;18.80;100.00
35519;BME280;21627;48.216;16.482;2023-07-31T06:16:43;99752.84;;;18.76;100.00
35519;BME280;21627;48.216;16.482;2023-07-31T06:19:11;99772.13;;;19.00;100.00
35519;BME280;21627;48.216;16.482;2023-07-31T06:21:38;99778.88;;;19.08;100.00
35519;BME280;21627;48.216;16.482;2023-07-31T06:24:06;99782.88;;;19.18;100.00
35519;BME280;21627;48.216;16.482;2023-07-31T06:26:33;99778.41;;;19.20;100.00
35519;BME280;21627;48.216;16.482;2023-07-31T06:29:00;99770.41;;;19.24;99.13
35519;BME280;21627;48.216;16.482;2023-07-31T06:31:27;99768.25;;;19.36;99.91
35519;BME280;21627;48.216;16.482;2023-07-31T06:33:54;99768.78;;;19.45;92.34
35519;BME280;21627;48.216;16.482;2023-07-31T06:36:22;99775.41;;;19.56;90.34
35519;BME280;21627;48.216;16.482;2023-07-31T06:38:49;99771.06;;;19.55;91.11
35519;BME280;21627;48.216;16.482;2023-07-31T06:41:16;99761.38;;;19.57;87.60
35519;BME280;21627;48.216;16.482;2023-07-31T06:43:43;99764.03;;;19.55;89.53
35519;BME280;21627;48.216;16.482;2023-07-31T06:46:10;99765.66;;;19.59;88.16
35519;BME280;21627;48.216;16.482;2023-07-31T06:48:37;99769.47;;;19.51;91.41
35519;BME280;21627;48.216;16.482;2023-07-31T06:51:05;99776.03;;;19.62;92.11
35519;BME280;21627;48.216;16.482;2023-07-31T06:53:32;99774.25;;;19.63;91.96
35519;BME280;21627;48.216;16.482;2023-07-31T06:55:59;99767.06;;;19.70;90.75
35519;BME280;21627;48.216;16.482;2023-07-31T06:58:26;99763.81;;;19.86;81.71
35519;BME280;21627;48.216;16.482;2023-07-31T07:00:53;99773.38;;;19.87;87.19
35519;BME280;21627;48.216;16.482;2023-07-31T07:03:20;99766.63;;;20.04;80.66
35519;BME280;21627;48.216;16.482;2023-07-31T07:05:47;99776.09;;;20.08;81.82
35519;BME280;21627;48.216;16.482;2023-07-31T07:08:14;99772.47;;;20.10;78.47
35519;BME280;21627;48.216;16.482;2023-07-31T07:10:42;99773.28;;;20.13;83.26
35519;BME280;21627;48.216;16.482;2023-07-31T07:13:09;99762.75;;;20.14;86.98
35519;BME280;21627;48.216;16.482;2023-07-31T07:15:36;99777.03;;;20.29;80.52
35519;BME280;21627;48.216;16.482;2023-07-31T07:18:03;99770.53;;;20.38;77.74
35519;BME280;21627;48.216;16.482;2023-07-31T07:20:30;99774.78;;;20.42;77.76
35519;BME280;21627;48.216;16.482;2023-07-31T07:22:57;99773.84;;;20.43;78.87
35519;BME280;21627;48.216;16.482;2023-07-31T07:25:25;99768.09;;;20.57;68.88
35519;BME280;21627;48.216;16.482;2023-07-31T07:27:52;99760.91;;;20.60;71.23
35519;BME280;21627;48.216;16.482;2023-07-31T07:30:19;99764.16;;;20.67;68.50
35519;BME280;21627;48.216;16.482;2023-07-31T07:32:47;99757.66;;;20.75;70.48
35519;BME280;21627;48.216;16.482;2023-07-31T07:35:14;99758.78;;;20.90;65.52
35519;BME280;21627;48.216;16.482;2023-07-31T07:37:41;99755.81;;;20.98;68.63
35519;BME280;21627;48.216;16.482;2023-07-31T07:40:08;99759.09;;;21.03;63.36
35519;BME280;21627;48.216;16.482;2023-07-31T07:42:36;99758.41;;;21.00;64.51
35519;BME280;21627;48.216;16.482;2023-07-31T07:45:03;99757.97;;;21.09;63.24
35519;BME280;21627;48.216;16.482;2023-07-31T07:47:30;99744.84;;;21.09;63.91
35519;BME280;21627;48.216;16.482;2023-07-31T07:49:58;99752.19;;;21.21;62.82
35519;BME280;21627;48.216;16.482;2023-07-31T07:52:25;99743.41;;;21.22;64.84
35519;BME280;21627;48.216;16.482;2023-07-31T07:54:52;99750.66;;;21.36;64.90
35519;BME280;21627;48.216;16.482;2023-07-31T07:57:19;99744.63;;;21.34;62.88
35519;BME280;21627;48.216;16.482;2023-07-31T07:59:46;99750.28;;;21.45;64.72
35519;BME280;21627;48.216;16.482;2023-07-31T08:02:13;99746.72;;;21.46;64.35
35519;BME280;21627;48.216;16.482;2023-07-31T08:04:40;99746.91;;;21.62;61.35
35519;BME280;21627;48.216;16.482;2023-07-31T08:07:07;99745.91;;;21.65;60.68
35519;BME280;21627;48.216;16.482;2023-07-31T08:09:34;99741.75;;;21.59;62.75
35519;BME280;21627;48.216;16.482;2023-07-31T08:12:01;99754.28;;;21.54;63.08
35519;BME280;21627;48.216;16.482;2023-07-31T08:14:30;99737.47;;;21.37;61.20
35519;BME280;21627;48.216;16.482;2023-07-31T08:17:00;99749.69;;;21.38;61.64
35519;BME280;21627;48.216;16.482;2023-07-31T08:19:27;99754.09;;;21.38;60.90
35519;BME280;21627;48.216;16.482;2023-07-31T08:21:55;99746.94;;;21.42;63.36
35519;BME280;21627;48.216;16.482;2023-07-31T08:24:24;99749.16;;;21.51;68.16
35519;BME280;21627;48.216;16.482;2023-07-31T08:26:51;99751.94;;;21.67;62.09
35519;BME280;21627;48.216;16.482;2023-07-31T08:29:19;99754.22;;;21.74;60.58
35519;BME280;21627;48.216;16.482;2023-07-31T08:31:46;99756.66;;;21.79;63.54
35519;BME280;21627;48.216;16.482;2023-07-31T08:34:13;99758.00;;;21.88;61.46
35519;BME280;21627;48.216;16.482;2023-07-31T08:36:40;99763.03;;;21.92;59.83
35519;BME280;21627;48.216;16.482;2023-07-31T08:39:07;99766.25;;;21.99;62.30
35519;BME280;21627;48.216;16.482;2023-07-31T08:41:38;99755.28;;;22.08;60.33
35519;BME280;21627;48.216;16.482;2023-07-31T08:44:08;99758.72;;;22.10;59.79
35519;BME280;21627;48.216;16.482;2023-07-31T08:46:37;99757.72;;;22.13;58.47
35519;BME280;21627;48.216;16.482;2023-07-31T08:49:05;99750.66;;;22.13;59.90
35519;BME280;21627;48.216;16.482;2023-07-31T08:51:35;99744.38;;;22.16;61.89
35519;BME280;21627;48.216;16.482;2023-07-31T08:54:03;99743.00;;;22.28;64.46
35519;BME280;21627;48.216;16.482;2023-07-31T08:56:33;99748.88;;;22.50;62.57
35519;BME280;21627;48.216;16.482;2023-07-31T08:59:02;99735.72;;;22.50;61.74
35519;BME280;21627;48.216;16.482;2023-07-31T09:01:37;99732.94;;;22.53;63.63
35519;BME280;21627;48.216;16.482;2023-07-31T09:04:09;99737.91;;;22.59;59.18
35519;BME280;21627;48.216;16.482;2023-07-31T09:06:38;99731.78;;;22.76;63.50
35519;BME280;21627;48.216;16.482;2023-07-31T09:09:06;99726.81;;;22.87;62.60
35519;BME280;21627;48.216;16.482;2023-07-31T09:11:33;99731.81;;;23.11;61.23
35519;BME280;21627;48.216;16.482;2023-07-31T09:14:01;99728.22;;;23.12;57.67
35519;BME280;21627;48.216;16.482;2023-07-31T09:16:35;99731.31;;;23.20;56.21
35519;BME280;21627;48.216;16.482;2023-07-31T09:19:02;99732.84;;;23.24;54.47
35519;BME280;21627;48.216;16.482;2023-07-31T09:21:30;99720.84;;;23.19;58.48
35519;BME280;21627;48.216;16.482;2023-07-31T09:23:57;99736.53;;;23.38;58.36
35519;BME280;21627;48.216;16.482;2023-07-31T09:26:33;99733.59;;;23.44;53.55
35519;BME280;21627;48.216;16.482;2023-07-31T09:29:05;99734.34;;;23.46;55.74
35519;BME280;21627;48.216;16.482;2023-07-31T09:31:42;99718.38;;;23.49;56.18
35519;BME280;21627;48.216;16.482;2023-07-31T09:34:11;99729.59;;;23.68;54.72
35519;BME280;21627;48.216;16.482;2023-07-31T09:36:49;99736.78;;;23.66;56.11
35519;BME280;21627;48.216;16.482;2023-07-31T09:39:18;99734.66;;;23.73;54.79
35519;BME280;21627;48.216;16.482;2023-07-31T09:41:56;99722.25;;;23.75;55.64
35519;BME280;21627;48.216;16.482;2023-07-31T09:44:42;99715.88;;;23.79;54.85
35519;BME280;21627;48.216;16.482;2023-07-31T09:47:22;99719.16;;;23.98;53.16
35519;BME280;21627;48.216;16.482;2023-07-31T09:49:53;99712.34;;;24.10;51.80
35519;BME280;21627;48.216;16.482;2023-07-31T09:52:20;99731.84;;;24.24;49.29
35519;BME280;21627;48.216;16.482;2023-07-31T09:54:47;99717.78;;;24.23;48.25
35519;BME280;21627;48.216;16.482;2023-07-31T09:57:17;99721.53;;;24.35;47.83
35519;BME280;21627;48.216;16.482;2023-07-31T09:59:47;99703.09;;;24.33;48.22
35519;BME280;21627;48.216;16.482;2023-07-31T10:02:21;99723.72;;;24.43;51.71
35519;BME280;21627;48.216;16.482;2023-07-31T10:04:50;99711.03;;;24.49;46.88
35519;BME280;21627;48.216;16.482;2023-07-31T10:07:18;99693.53;;;24.47;47.38
35519;BME280;21627;48.216;16.482;2023-07-31T10:09:47;99701.41;;;24.48;50.45
35519;BME280;21627;48.216;16.482;2023-07-31T10:12:19;99701.44;;;24.63;51.09
35519;BME280;21627;48.216;16.482;2023-07-31T10:14:46;99683.53;;;24.68;48.24
35519;BME280;21627;48.216;16.482;2023-07-31T10:17:14;99696.59;;;24.85;48.70
35519;BME280;21627;48.216;16.482;2023-07-31T10:19:42;99703.38;;;24.89;48.46
35519;BME280;21627;48.216;16.482;2023-07-31T10:22:10;99694.81;;;25.00;50.96
35519;BME280;21627;48.216;16.482;2023-07-31T10:24:40;99683.34;;;24.99;49.08
35519;BME280;21627;48.216;16.482;2023-07-31T10:27:10;99676.66;;;24.94;48.56
35519;BME280;21627;48.216;16.482;2023-07-31T10:29:39;99681.41;;;25.03;49.73
35519;BME280;21627;48.216;16.482;2023-07-31T10:32:08;99680.09;;;25.10;48.55
35519;BME280;21627;48.216;16.482;2023-07-31T10:34:39;99675.81;;;25.08;49.16
35519;BME280;21627;48.216;16.482;2023-07-31T10:37:41;99673.34;;;24.90;49.46
35519;BME280;21627;48.216;16.482;2023-07-31T10:40:40;99661.91;;;24.75;49.46
35519;BME280;21627;48.216;16.482;2023-07-31T10:43:09;99668.81;;;24.78;49.05
35519;BME280;21627;48.216;16.482;2023-07-31T10:45:42;99663.06;;;25.00;50.18
35519;BME280;21627;48.216;16.482;2023-07-31T10:48:15;99655.69;;;25.05;49.63
35519;BME280;21627;48.216;16.482;2023-07-31T10:50:51;99653.44;;;25.13;52.03
35519;BME280;21627;48.216;16.482;2023-07-31T10:53:26;99653.19;;;25.18;49.69
35519;BME280;21627;48.216;16.482;2023-07-31T10:55:53;99656.75;;;25.31;52.48
35519;BME280;21627;48.216;16.482;2023-07-31T10:58:24;99659.75;;;25.39;48.11
35519;BME280;21627;48.216;16.482;2023-07-31T11:00:56;99641.78;;;25.44;50.17
35519;BME280;21627;48.216;16.482;2023-07-31T11:03:45;99641.41;;;25.51;44.06
35519;BME280;21627;48.216;16.482;2023-07-31T11:06:17;99640.84;;;25.45;45.60
35519;BME280;21627;48.216;16.482;2023-07-31T11:08:50;99628.75;;;25.41;48.75
35519;BME280;21627;48.216;16.482;2023-07-31T11:11:20;99618.63;;;25.48;47.61
35519;BME280;21627;48.216;16.482;2023-07-31T11:13:52;99617.84;;;25.60;50.92
35519;BME280;21627;48.216;16.482;2023-07-31T11:16:22;99618.81;;;25.86;51.50
35519;BME280;21627;48.216;16.482;2023-07-31T11:18:52;99614.16;;;25.90;45.40
35519;BME280;21627;48.216;16.482;2023-07-31T11:21:23;99611.97;;;25.97;49.44
35519;BME280;21627;48.216;16.482;2023-07-31T11:23:57;99613.06;;;26.07;48.32
35519;BME280;21627;48.216;16.482;2023-07-31T11:26:28;99605.56;;;26.14;43.29
35519;BME280;21627;48.216;16.482;2023-07-31T11:28:55;99608.22;;;26.26;47.97
35519;BME280;21627;48.216;16.482;2023-07-31T11:31:22;99607.50;;;26.37;45.78
35519;BME280;21627;48.216;16.482;2023-07-31T11:33:49;99604.09;;;26.48;42.44
35519;BME280;21627;48.216;16.482;2023-07-31T11:36:18;99601.97;;;26.27;42.24
35519;BME280;21627;48.216;16.482;2023-07-31T11:38:46;99593.25;;;26.25;44.86
35519;BME280;21627;48.216;16.482;2023-07-31T11:41:17;99599.84;;;26.32;44.02
35519;BME280;21627;48.216;16.482;2023-07-31T11:43:46;99585.53;;;26.35;45.20
35519;BME280;21627;48.216;16.482;2023-07-31T11:46:14;99583.22;;;26.43;43.32
35519;BME280;21627;48.216;16.482;2023-07-31T11:48:42;99576.84;;;26.46;43.15
35519;BME280;21627;48.216;16.482;2023-07-31T11:51:11;99570.47;;;26.48;44.77
35519;BME280;21627;48.216;16.482;2023-07-31T11:53:54;99576.91;;;26.71;41.93
35519;BME280;21627;48.216;16.482;2023-07-31T11:56:23;99567.53;;;26.79;48.19
35519;BME280;21627;48.216;16.482;2023-07-31T11:58:58;99568.38;;;26.92;44.98
35519;BME280;21627;48.216;16.482;2023-07-31T12:01:26;99569.19;;;27.05;40.51
35519;BME280;21627;48.216;16.482;2023-07-31T12:03:57;99564.72;;;27.06;44.70
35519;BME280;21627;48.216;16.482;2023-07-31T12:06:35;99558.03;;;27.13;41.43
35519;BME280;21627;48.216;16.482;2023-07-31T12:09:04;99561.53;;;27.13;43.87
35519;BME280;21627;48.216;16.482;2023-07-31T12:11:51;99553.06;;;27.08;42.96
35519;BME280;21627;48.216;16.482;2023-07-31T12:14:25;99532.91;;;26.93;42.73
35519;BME280;21627;48.216;16.482;2023-07-31T12:16:55;99541.88;;;27.16;42.77
35519;BME280;21627;48.216;16.482;2023-07-31T12:19:25;99544.84;;;27.37;41.12
35519;BME280;21627;48.216;16.482;2023-07-31T12:21:56;99530.34;;;27.41;43.17
35519;BME280;21627;48.216;16.482;2023-07-31T12:24:23;99524.53;;;27.36;41.36
35519;BME280;21627;48.216;16.482;2023-07-31T12:26:50;99522.13;;;27.57;41.95
35519;BME280;21627;48.216;16.482;2023-07-31T12:29:19;99519.72;;;27.41;39.80
35519;BME280;21627;48.216;16.482;2023-07-31T12:31:46;99510.81;;;27.18;40.23
35519;BME280;21627;48.216;16.482;2023-07-31T12:34:18;99514.63;;;27.27;44.94
35519;BME280;21627;48.216;16.482;2023-07-31T12:36:47;99518.31;;;27.48;44.50
35519;BME280;21627;48.216;16.482;2023-07-31T12:39:16;99515.75;;;27.71;40.14
35519;BME280;21627;48.216;16.482;2023-07-31T12:41:43;99507.06;;;27.93;42.00
35519;BME280;21627;48.216;16.482;2023-07-31T12:44:10;99496.03;;;27.86;39.48
35519;BME280;21627;48.216;16.482;2023-07-31T12:46:37;99491.72;;;27.96;39.58
35519;BME280;21627;48.216;16.482;2023-07-31T12:49:05;99490.28;;;28.15;38.66
35519;BME280;21627;48.216;16.482;2023-07-31T12:51:32;99486.69;;;28.27;37.05
35519;BME280;21627;48.216;16.482;2023-07-31T12:53:59;99485.63;;;28.41;37.51
35519;BME280;21627;48.216;16.482;2023-07-31T12:56:26;99477.66;;;28.52;39.87
35519;BME280;21627;48.216;16.482;2023-07-31T12:58:53;99478.88;;;28.71;40.65